Ahwaz, Iran
Current Conditions -  °F | °C
As of 5:30 PM on Thursday 30 Oct 2014 (Local Time) from OIAW Reporting Station
Broken Clouds Broken Clouds  
Wind Chill: 79°   Ceiling: 10000
Heat Index: 79°   Visibility: 6mi
Dew Point: 55°   Wind: 5mph
Humidity: 44%   Direction: 50°NE
Pressure: 29.85"   Gusts: NA
Location:  31.34°N, 48.76°E
Report Text: OIAW 301330Z 05004KT 9999 FEW035CB SCT040 BKN100 26/13 Q1011
Loading
Personal Weather Stations






























Interactive Weather Map
Tropical Storm Tracking
New forecast layout! Learn more

10-Day Weather Forecast

Advertisements
Track Severe Weather on mobile